Terminal Aerodrome Forecast
Issued by NWS

Home | Current Version | Previous Version | Text Only | Print | Product List | Glossary On
Versions: 1 2 3 4 5 6 7 8 9 10 11 12 13 14 15 16 17 18 19 20 21 22 23 24 25 26 27
000
FTUS42 KTBW 290540
TAFPIE
TAF
KPIE 290540Z 2906/3006 24005KT P6SM FEW010 BKN070 BKN200
     FM291100 25008KT P6SM FEW025 BKN040 BKN200
     FM291400 26011KT P6SM VCTS SCT025CB BKN050
     FM292000 27007KT P6SM VCSH SCT030 BKN040 BKN200=

USA.gov is the U.S. government's official web portal to all federal, state and local government web resources and services.